Boykin, South Carolina
Current Conditions -  °F | °C
As of 5:10 PM on Tuesday 25 Nov 2014 (Local Time) from KSSC Reporting Station
Light Rain Light Rain  
Wind Chill: 61°   Ceiling: Unl
Heat Index: 61°   Visibility: 10mi
Dew Point: 57°   Wind: 0mph
Humidity: 88%   Direction: NA
Pressure: 30.01"   Gusts: NA
Location:  34.1106°N, 80.4967°W
Report Text: KSSC 252210Z AUTO 00000KT 10SM -RA FEW110 16/14 A3001 RMK AO2
Loading
Personal Weather Stations






























Interactive Weather Map New forecast layout! Learn more

10-Day Weather Forecast

Advertisements
Track Severe Weather on mobile